KFTW

Fort Worth Meacham International Airport

Airport
ICAO code
KFTW
IATA Code
FTW
Summary
ICAO Region
NAM
ICAO Territory
Location

, Texas

Serving
Fort Worth
Elevation
710 ft
Coordinates
32° 49' 11" N , 97° 21' 45" W
Metar
Observation
KFTW 232353Z 17016G27KT 10SM BKN060 OVC070 26/17 A2977 RMK AO2 PK WND 15031/2254 SLP073 T02610172 10272 20244 55018
Station
Fort Worth, Meacham International Airport
Date/Time
2023-03-23 23:53:00
Wind direction
170°
Wind speed
16 kts
Lowest cloud amount
broken clouds
Temperature
26.1°C
Dew point
17.2°C
Humidity
58%
Weather condition
n/a

Airport map

Aerial View

SKYbrary Partners:

Safety knowledge contributed by: